createdAt,value
2022-08-07T00:02:36.165Z,15.35
2022-08-07T00:04:59.331Z,19.02
2022-08-07T00:07:28.195Z,14.13
2022-08-07T00:13:01.765Z,10.98
2022-08-07T00:15:36.148Z,16.75
2022-08-07T00:18:19.810Z,14.88
2022-08-07T00:20:52.038Z,14.43
2022-08-07T00:23:21.122Z,21.60
2022-08-07T00:25:52.415Z,15.73
2022-08-07T00:28:33.345Z,17.38
2022-08-07T00:31:04.328Z,15.68
2022-08-07T00:33:35.757Z,17.10
2022-08-07T00:36:06.554Z,21.88
2022-08-07T00:38:37.036Z,22.90
2022-08-07T00:41:10.000Z,14.95
2022-08-07T00:44:00.754Z,24.13
2022-08-07T00:46:33.186Z,14.13
2022-08-07T00:49:03.559Z,14.65
2022-08-07T00:51:57.538Z,17.33
2022-08-07T00:54:22.505Z,10.90
2022-08-07T00:56:51.420Z,12.65
2022-08-07T00:59:35.204Z,13.82
2022-08-07T01:02:14.125Z,17.05
2022-08-07T01:04:58.406Z,19.80
2022-08-07T01:07:29.642Z,18.45
2022-08-07T01:10:06.373Z,13.15
2022-08-07T01:12:53.429Z,19.70
2022-08-07T01:15:36.112Z,14.07
2022-08-07T01:18:16.864Z,11.32
2022-08-07T01:20:58.453Z,19.95
2022-08-07T01:23:38.409Z,17.20
2022-08-07T01:26:12.392Z,14.13
2022-08-07T01:28:48.769Z,15.20
2022-08-07T01:31:42.361Z,20.20
2022-08-07T01:34:14.919Z,11.35
2022-08-07T01:36:52.388Z,14.85
2022-08-07T01:39:41.101Z,14.18
2022-08-07T01:42:39.658Z,13.07
2022-08-07T01:45:22.737Z,11.45
2022-08-07T01:48:21.722Z,13.80
2022-08-07T01:50:47.990Z,12.73
2022-08-07T01:53:20.862Z,15.70
2022-08-07T01:55:57.769Z,14.93
2022-08-07T01:58:33.341Z,13.57
2022-08-07T02:01:10.272Z,18.65
2022-08-07T02:04:00.491Z,13.88
2022-08-07T02:06:32.860Z,12.38
2022-08-07T02:09:07.460Z,14.55
2022-08-07T02:12:03.482Z,14.57
2022-08-07T02:14:35.513Z,16.15
2022-08-07T02:17:06.387Z,13.98
2022-08-07T02:20:05.790Z,13.13
2022-08-07T02:22:25.937Z,10.52
2022-08-07T02:24:55.640Z,16.33
2022-08-07T02:27:25.510Z,15.25
2022-08-07T02:29:55.146Z,11.95
2022-08-07T02:32:29.934Z,11.40
2022-08-07T02:35:00.991Z,12.97
2022-08-07T02:37:34.265Z,17.65
2022-08-07T02:40:29.818Z,18.63
2022-08-07T02:42:59.195Z,15.90
2022-08-07T02:45:58.251Z,15.20
2022-08-07T02:48:17.588Z,9.00
2022-08-07T02:51:28.859Z,15.95
2022-08-07T02:54:02.794Z,15.77
2022-08-07T02:56:32.937Z,16.67
2022-08-07T02:59:06.253Z,9.90
2022-08-07T03:01:40.376Z,14.07
2022-08-07T03:04:14.113Z,11.95
2022-08-07T03:06:48.107Z,13.68
2022-08-07T03:09:42.405Z,14.20
2022-08-07T03:12:22.211Z,9.65
2022-08-07T03:15:08.145Z,7.65
2022-08-07T03:17:53.508Z,8.25
2022-08-07T03:20:25.379Z,12.15
2022-08-07T03:22:54.061Z,8.55
2022-08-07T03:25:25.800Z,11.02
2022-08-07T03:28:09.494Z,9.38
2022-08-07T03:31:13.727Z,12.20
2022-08-07T03:33:43.238Z,7.80
2022-08-07T03:36:15.249Z,9.65
2022-08-07T03:38:47.032Z,9.27
2022-08-07T03:41:17.872Z,9.25
2022-08-07T03:43:56.738Z,12.27
2022-08-07T03:46:27.328Z,9.45
2022-08-07T03:49:07.807Z,8.88
2022-08-07T03:51:47.418Z,15.77
2022-08-07T03:54:36.324Z,10.27
2022-08-07T03:58:34.023Z,7.32
2022-08-07T04:00:05.925Z,9.60
2022-08-07T04:02:47.167Z,8.50
2022-08-07T04:08:20.930Z,7.53
2022-08-07T04:10:54.074Z,10.35
2022-08-07T04:14:33.032Z,11.70
2022-08-07T04:16:32.669Z,8.48
2022-08-07T04:19:12.829Z,6.70
2022-08-07T04:21:59.273Z,8.07
2022-08-07T04:24:42.390Z,8.20
2022-08-07T04:27:20.763Z,9.23
2022-08-07T04:30:04.478Z,11.10
2022-08-07T04:32:49.059Z,9.20
2022-08-07T04:35:35.148Z,9.90
2022-08-07T04:38:13.334Z,8.43
2022-08-07T04:40:51.681Z,6.07
2022-08-07T04:44:13.055Z,8.80
2022-08-07T04:47:04.349Z,9.43
2022-08-07T04:50:04.455Z,7.80
2022-08-07T04:52:54.609Z,5.68
2022-08-07T04:58:11.902Z,8.70
2022-08-07T04:59:09.182Z,6.82
2022-08-07T05:02:05.299Z,6.85
2022-08-07T05:05:02.872Z,7.40
2022-08-07T05:07:54.606Z,4.78
2022-08-07T05:10:32.142Z,6.15
2022-08-07T05:14:53.976Z,5.75
2022-08-07T05:16:26.131Z,5.00
2022-08-07T05:19:00.357Z,7.07
2022-08-07T05:22:00.106Z,8.07
2022-08-07T05:24:30.397Z,4.15
2022-08-07T05:27:14.530Z,6.60
2022-08-07T05:30:03.726Z,5.22
2022-08-07T05:32:32.883Z,8.00
2022-08-07T05:35:03.428Z,4.50
2022-08-07T05:37:37.773Z,8.55
2022-08-07T05:40:18.796Z,4.78
2022-08-07T05:42:56.342Z,4.68
2022-08-07T05:45:46.490Z,6.50
2022-08-07T05:48:16.876Z,6.88
2022-08-07T05:50:47.362Z,6.60
2022-08-07T05:54:12.225Z,6.70
2022-08-07T05:56:10.403Z,6.13
2022-08-07T05:58:52.488Z,4.85
2022-08-07T06:01:25.925Z,7.40
2022-08-07T06:03:58.907Z,6.35
2022-08-07T06:06:38.444Z,10.70
2022-08-07T06:09:16.554Z,5.78
2022-08-07T06:11:49.699Z,7.43
2022-08-07T06:14:28.521Z,4.68
2022-08-07T06:17:01.637Z,7.53
2022-08-07T06:19:57.836Z,5.47
2022-08-07T06:22:28.561Z,9.50
2022-08-07T06:25:10.403Z,6.97
2022-08-07T06:28:00.545Z,8.60
2022-08-07T06:30:37.488Z,6.10
2022-08-07T06:33:18.455Z,6.18
2022-08-07T06:36:12.314Z,4.63
2022-08-07T06:38:51.262Z,7.38
2022-08-07T06:42:00.658Z,8.60
2022-08-07T06:44:41.335Z,6.82
2022-08-07T06:47:15.389Z,5.32
2022-08-07T06:49:51.901Z,7.47
2022-08-07T06:52:36.021Z,8.82
2022-08-07T06:55:53.954Z,10.13
2022-08-07T06:58:17.437Z,4.72
2022-08-07T07:01:00.385Z,8.23
2022-08-07T07:03:48.708Z,4.63
2022-08-07T07:06:26.529Z,5.57
2022-08-07T07:08:58.142Z,3.53
2022-08-07T07:12:08.579Z,8.02
2022-08-07T07:14:15.816Z,7.88
2022-08-07T07:16:50.672Z,6.53
2022-08-07T07:19:55.923Z,6.55
2022-08-07T07:22:36.622Z,6.68
2022-08-07T07:26:30.758Z,7.63
2022-08-07T07:28:41.923Z,5.80
2022-08-07T07:31:17.314Z,4.93
2022-08-07T07:36:32.410Z,7.95
2022-08-07T07:39:01.585Z,8.55
2022-08-07T07:41:30.906Z,6.25
2022-08-07T07:44:26.107Z,5.97
2022-08-07T07:47:04.336Z,7.53
2022-08-07T07:50:34.944Z,4.10
2022-08-07T07:52:32.069Z,3.53
2022-08-07T07:55:00.085Z,3.70
2022-08-07T07:57:43.989Z,2.88
2022-08-07T08:00:21.146Z,3.42
2022-08-07T08:03:08.439Z,4.90
2022-08-07T08:05:53.817Z,2.67
2022-08-07T08:08:35.448Z,4.30
2022-08-07T08:11:09.008Z,5.35
2022-08-07T08:13:54.729Z,7.28
2022-08-07T08:16:53.608Z,4.18
2022-08-07T08:20:15.982Z,5.43
2022-08-07T08:22:32.788Z,5.32
2022-08-07T08:25:42.296Z,6.45
2022-08-07T08:28:16.848Z,7.35
2022-08-07T08:30:59.536Z,2.65
2022-08-07T08:33:33.180Z,8.70
2022-08-07T08:36:02.167Z,3.13
2022-08-07T08:38:40.409Z,3.58
2022-08-07T08:41:56.921Z,4.05
2022-08-07T08:47:13.571Z,3.03
2022-08-07T08:50:04.636Z,4.57
2022-08-07T08:53:05.515Z,7.70
2022-08-07T08:55:58.504Z,3.47
2022-08-07T08:58:56.536Z,4.95
2022-08-07T09:01:43.613Z,6.15
2022-08-07T09:04:26.064Z,2.33
2022-08-07T09:07:02.522Z,5.95
2022-08-07T09:09:36.724Z,2.60
2022-08-07T09:12:19.943Z,7.15
2022-08-07T09:16:22.203Z,7.35
2022-08-07T09:18:22.090Z,3.42
2022-08-07T09:21:06.464Z,4.57
2022-08-07T09:26:47.951Z,5.05
2022-08-07T09:30:03.470Z,6.95
2022-08-07T09:32:58.001Z,4.90
2022-08-07T09:36:04.125Z,6.45
2022-08-07T09:38:54.967Z,5.07
2022-08-07T09:41:59.125Z,2.75
2022-08-07T09:44:58.498Z,3.53
2022-08-07T09:48:00.393Z,6.35
2022-08-07T09:50:46.935Z,3.38
2022-08-07T09:53:14.661Z,4.03
2022-08-07T09:56:05.143Z,3.92
2022-08-07T09:58:54.646Z,4.63
2022-08-07T10:01:51.739Z,1.63
2022-08-07T10:04:28.253Z,4.05
2022-08-07T10:07:31.638Z,4.68
2022-08-07T10:10:06.396Z,1.58
2022-08-07T10:13:10.966Z,2.13
2022-08-07T10:15:49.160Z,3.33
2022-08-07T10:18:56.700Z,5.78
2022-08-07T10:22:14.982Z,4.57
2022-08-07T10:24:49.811Z,3.03
2022-08-07T10:27:45.907Z,6.88
2022-08-07T10:30:25.040Z,4.68
2022-08-07T10:34:06.283Z,4.85
2022-08-07T10:36:29.721Z,5.38
2022-08-07T10:39:18.927Z,4.80
2022-08-07T10:42:21.307Z,4.05
2022-08-07T10:45:01.953Z,2.20
2022-08-07T10:50:31.931Z,4.22
2022-08-07T10:53:10.894Z,7.40
2022-08-07T10:56:30.954Z,2.45
2022-08-07T10:59:11.076Z,3.00
2022-08-07T11:01:51.928Z,3.97
2022-08-07T11:04:40.233Z,2.30
2022-08-07T11:07:14.889Z,3.63
2022-08-07T11:10:07.589Z,3.70
2022-08-07T11:13:02.252Z,2.13
2022-08-07T11:15:34.538Z,1.70
2022-08-07T11:18:50.993Z,2.75
2022-08-07T11:21:19.456Z,2.58
2022-08-07T11:24:04.846Z,4.75
2022-08-07T11:26:50.506Z,3.72
2022-08-07T11:29:42.683Z,7.00
2022-08-07T11:32:15.514Z,2.83
2022-08-07T11:35:03.197Z,2.67
2022-08-07T11:37:38.538Z,2.78
2022-08-07T11:40:59.969Z,2.93
2022-08-07T11:43:54.690Z,2.22
2022-08-07T11:46:50.252Z,5.35
2022-08-07T11:50:18.664Z,5.63
2022-08-07T11:52:35.653Z,3.88
2022-08-07T11:55:12.994Z,1.50
2022-08-07T12:00:53.649Z,2.58
2022-08-07T12:03:46.398Z,3.90
2022-08-07T12:06:37.879Z,2.88
2022-08-07T12:09:51.432Z,2.13
2022-08-07T12:12:22.538Z,5.63
2022-08-07T12:15:02.062Z,2.92
2022-08-07T12:17:58.548Z,2.58
2022-08-07T12:20:30.753Z,2.35
2022-08-07T12:23:15.096Z,4.22
2022-08-07T12:26:22.394Z,4.18
2022-08-07T12:29:03.925Z,8.13
2022-08-07T12:31:52.371Z,1.83
2022-08-07T12:34:25.894Z,5.07
2022-08-07T12:39:44.434Z,3.55
2022-08-07T12:42:13.194Z,2.83
2022-08-07T12:44:42.982Z,2.67
2022-08-07T12:47:30.785Z,2.17
2022-08-07T12:50:39.081Z,6.85
2022-08-07T12:53:18.797Z,2.33
2022-08-07T12:56:10.722Z,3.47
2022-08-07T12:58:43.020Z,3.42
2022-08-07T13:01:19.674Z,6.35
2022-08-07T13:04:32.652Z,2.45
2022-08-07T13:08:11.613Z,2.67
2022-08-07T13:10:29.342Z,1.67
2022-08-07T13:13:47.823Z,4.53
2022-08-07T13:16:11.121Z,2.17
2022-08-07T13:19:21.672Z,3.45
2022-08-07T13:22:12.677Z,2.67
2022-08-07T13:24:56.778Z,3.67
2022-08-07T13:27:33.247Z,4.07
2022-08-07T13:30:18.857Z,3.40
2022-08-07T13:32:53.056Z,2.13
2022-08-07T13:36:00.867Z,2.92
2022-08-07T13:38:45.593Z,3.80
2022-08-07T13:41:42.183Z,4.07
2022-08-07T13:44:13.025Z,5.60
2022-08-07T13:46:48.853Z,3.17
2022-08-07T13:50:35.354Z,6.03
2022-08-07T13:52:31.696Z,4.47
2022-08-07T13:54:58.130Z,3.67
2022-08-07T13:57:26.968Z,3.38
2022-08-07T14:00:10.350Z,4.45
2022-08-07T14:02:55.654Z,6.28
2022-08-07T14:05:23.733Z,3.10
2022-08-07T14:07:59.604Z,4.32
2022-08-07T14:10:41.743Z,3.47
2022-08-07T14:13:33.605Z,3.15
2022-08-07T14:16:06.341Z,3.15
2022-08-07T14:18:49.931Z,3.42
2022-08-07T14:22:02.345Z,9.25
2022-08-07T14:24:37.553Z,5.97
2022-08-07T14:28:09.538Z,8.65
2022-08-07T14:30:05.441Z,3.50
2022-08-07T14:32:43.173Z,2.57
2022-08-07T14:35:16.257Z,6.85
2022-08-07T14:38:06.053Z,4.47
2022-08-07T14:40:36.017Z,3.03
2022-08-07T14:43:57.357Z,4.05
2022-08-07T14:45:57.782Z,4.35
2022-08-07T14:48:33.080Z,4.45
2022-08-07T14:51:15.837Z,3.80
2022-08-07T14:54:03.649Z,3.97
2022-08-07T14:56:33.463Z,3.83
2022-08-07T14:59:13.853Z,2.88
2022-08-07T15:01:58.407Z,4.78
2022-08-07T15:04:28.812Z,10.25
2022-08-07T15:06:57.040Z,7.95
2022-08-07T15:10:00.001Z,6.72
2022-08-07T15:12:26.002Z,9.88
2022-08-07T15:15:17.350Z,7.90
2022-08-07T15:17:57.159Z,7.05
2022-08-07T15:20:33.865Z,7.38
2022-08-07T15:25:12.827Z,8.57
2022-08-07T15:26:20.860Z,5.18
2022-08-07T15:28:56.638Z,6.07
2022-08-07T15:32:01.217Z,6.95
2022-08-07T15:34:17.171Z,6.95
2022-08-07T15:37:03.706Z,7.17
2022-08-07T15:39:56.272Z,7.18
2022-08-07T15:42:43.933Z,6.00
2022-08-07T15:45:14.734Z,8.20
2022-08-07T15:53:51.621Z,8.77
2022-08-07T15:56:35.278Z,5.65
2022-08-07T15:59:16.327Z,11.25
2022-08-07T16:02:02.582Z,7.82
2022-08-07T16:04:32.162Z,9.63
2022-08-07T16:07:00.990Z,9.70
2022-08-07T16:09:42.336Z,10.85
2022-08-07T16:12:25.068Z,8.93
2022-08-07T16:15:03.306Z,7.82
2022-08-07T16:18:49.569Z,12.68
2022-08-07T16:22:01.226Z,9.65
2022-08-07T16:24:35.547Z,9.85
2022-08-07T16:27:18.097Z,12.00
2022-08-07T16:30:30.616Z,11.82
2022-08-07T16:34:02.195Z,9.57
2022-08-07T16:36:30.963Z,27.38
2022-08-07T16:39:49.358Z,14.57
2022-08-07T16:42:52.506Z,15.95
2022-08-07T16:46:33.209Z,13.30
2022-08-07T16:49:10.607Z,15.77
2022-08-07T16:52:11.358Z,20.98
2022-08-07T16:55:08.447Z,11.40
2022-08-07T16:58:02.727Z,11.85
2022-08-07T17:03:17.190Z,10.38
2022-08-07T17:06:28.566Z,16.35
2022-08-07T17:09:09.722Z,18.13
2022-08-07T17:12:04.961Z,18.83
2022-08-07T17:15:03.540Z,13.25
2022-08-07T17:17:46.144Z,17.77
2022-08-07T17:20:37.886Z,26.33
2022-08-07T17:23:14.218Z,19.92
2022-08-07T17:26:23.298Z,17.15
2022-08-07T17:28:58.563Z,25.38
2022-08-07T17:31:43.904Z,60.38
2022-08-07T17:34:33.468Z,39.22
2022-08-07T17:37:14.417Z,29.38
2022-08-07T17:40:07.874Z,24.27
2022-08-07T17:42:58.631Z,26.48
2022-08-07T17:45:34.168Z,21.63
2022-08-07T17:48:11.296Z,16.17
2022-08-07T17:50:55.803Z,15.30
2022-08-07T17:53:59.786Z,18.25
2022-08-07T17:56:49.407Z,21.88
2022-08-07T17:59:21.305Z,14.77
2022-08-07T18:02:12.881Z,17.63
2022-08-07T18:04:48.924Z,13.43
2022-08-07T18:07:34.102Z,14.88
2022-08-07T18:10:32.624Z,7.80
2022-08-07T18:13:01.278Z,13.52
2022-08-07T18:15:32.591Z,11.73
2022-08-07T18:18:47.598Z,10.68
2022-08-07T18:21:42.064Z,12.43
2022-08-07T18:24:33.005Z,10.05
2022-08-07T18:27:07.764Z,13.63
2022-08-07T18:30:32.371Z,8.95
2022-08-07T18:33:39.075Z,10.15
2022-08-07T18:36:58.196Z,10.95
2022-08-07T18:40:06.916Z,19.88
2022-08-07T18:43:15.118Z,17.38
2022-08-07T18:46:24.580Z,19.70
2022-08-07T18:50:32.340Z,13.13
2022-08-07T18:52:37.823Z,12.50
2022-08-07T18:55:43.118Z,12.32
2022-08-07T18:58:34.117Z,16.83
2022-08-07T19:01:05.868Z,15.48
2022-08-07T19:03:49.755Z,16.80
2022-08-07T19:06:33.947Z,14.63
2022-08-07T19:09:57.897Z,15.95
2022-08-07T19:12:53.491Z,17.23
2022-08-07T19:16:05.878Z,10.38
2022-08-07T19:18:35.513Z,12.65
2022-08-07T19:21:47.707Z,15.38
2022-08-07T19:24:43.587Z,14.80
2022-08-07T19:28:29.951Z,16.45
2022-08-07T19:31:05.679Z,13.80
2022-08-07T19:32:59.671Z,21.08
2022-08-07T19:35:33.445Z,14.88
2022-08-07T19:38:04.095Z,18.15
2022-08-07T19:40:49.295Z,15.10
2022-08-07T19:43:43.956Z,10.43
2022-08-07T19:46:19.584Z,19.33
2022-08-07T19:48:53.800Z,15.07
2022-08-07T19:51:51.188Z,14.75
2022-08-07T19:54:34.344Z,16.83
2022-08-07T19:58:02.925Z,13.98
2022-08-07T20:00:02.293Z,19.30
2022-08-07T20:02:53.447Z,16.83
2022-08-07T20:05:28.123Z,12.70
2022-08-07T20:08:04.766Z,13.98
2022-08-07T20:10:52.329Z,13.15
2022-08-07T20:13:31.852Z,16.67
2022-08-07T20:16:01.502Z,16.90
2022-08-07T20:18:32.927Z,13.68
2022-08-07T20:21:21.144Z,17.05
2022-08-07T20:24:03.813Z,17.02
2022-08-07T20:26:44.748Z,15.02
2022-08-07T20:29:17.032Z,15.95
2022-08-07T20:32:03.939Z,17.23
2022-08-07T20:34:50.336Z,26.13
2022-08-07T20:37:23.706Z,20.05
2022-08-07T20:40:03.884Z,24.52
2022-08-07T20:42:36.550Z,22.02
2022-08-07T20:45:32.592Z,26.08
2022-08-07T20:47:57.955Z,31.90
2022-08-07T20:50:28.098Z,38.50
2022-08-07T20:52:55.759Z,48.92
2022-08-07T20:55:24.471Z,50.22
2022-08-07T20:58:02.742Z,57.47
2022-08-07T21:00:44.395Z,66.07
2022-08-07T21:03:14.614Z,64.78
2022-08-07T21:05:55.904Z,69.57
2022-08-07T21:08:38.056Z,69.07
2022-08-07T21:11:12.368Z,76.90
2022-08-07T21:14:32.101Z,95.00
2022-08-07T21:18:03.234Z,104.20
2022-08-07T21:20:00.631Z,104.45
2022-08-07T21:22:54.500Z,108.10
2022-08-07T21:25:42.632Z,96.85
2022-08-07T21:28:47.528Z,104.85
2022-08-07T21:31:31.289Z,113.45
2022-08-07T21:34:21.808Z,136.18
2022-08-07T21:37:09.117Z,122.57
2022-08-07T21:40:01.224Z,117.15
2022-08-07T21:42:55.078Z,122.40
2022-08-07T21:46:08.017Z,116.22
2022-08-07T21:49:00.850Z,119.35
2022-08-07T21:51:28.549Z,103.97
2022-08-07T21:54:22.056Z,117.53
2022-08-07T21:57:10.960Z,118.50
2022-08-07T22:00:06.130Z,105.40
2022-08-07T22:02:49.962Z,72.40
2022-08-07T22:05:45.389Z,77.97
2022-08-07T22:08:11.535Z,63.78
2022-08-07T22:10:42.365Z,54.88
2022-08-07T22:13:13.805Z,44.37
2022-08-07T22:19:23.598Z,36.92
2022-08-07T22:22:28.509Z,47.00
2022-08-07T22:25:07.631Z,53.08
2022-08-07T22:28:29.849Z,47.22
2022-08-07T22:30:52.982Z,39.73
2022-08-07T22:33:50.978Z,35.95
2022-08-07T22:38:52.084Z,36.95
2022-08-07T22:42:03.045Z,28.70
2022-08-07T22:44:23.498Z,30.95
2022-08-07T22:47:09.399Z,29.92
2022-08-07T22:50:04.548Z,31.60
2022-08-07T22:52:50.870Z,24.30
2022-08-07T22:55:43.933Z,23.95
2022-08-07T22:58:18.254Z,26.38
2022-08-07T23:01:05.397Z,25.90
2022-08-07T23:03:58.219Z,22.17
2022-08-07T23:07:33.600Z,27.38
2022-08-07T23:10:37.261Z,21.58
2022-08-07T23:13:48.371Z,18.58
2022-08-07T23:16:55.069Z,17.77
2022-08-07T23:19:51.368Z,18.77
2022-08-07T23:22:39.189Z,15.40
2022-08-07T23:25:13.691Z,17.15
2022-08-07T23:28:21.467Z,16.50
2022-08-07T23:31:11.616Z,16.05
2022-08-07T23:34:36.602Z,18.80
2022-08-07T23:36:43.072Z,13.83
2022-08-07T23:39:48.301Z,14.70
2022-08-07T23:43:02.359Z,12.48
2022-08-07T23:48:41.002Z,17.38
2022-08-07T23:52:59.792Z,16.10
2022-08-07T23:54:19.631Z,14.88
2022-08-07T23:56:59.756Z,13.90
